Time;durP1;ratioP1;P1;durP2;ratioP2;P2;SDS_P1;SDS_P2;PMS_P1;PMS_P2;Temp;Humidity;BMP_temperature;BMP_pressure;BME280_temperature;BME280_humidity;BME280_pressure;Samples;Min_cycle;Max_cycle;Signal;HPM_P1;HPM_P2
2023/03/29 09:10:20;;;;;;;316.50;242.68;;;;;;;21.70;51.86;101038.88;5152551;27;20138;-47
2023/03/29 09:13:06;;;;;;;296.88;222.45;;;;;;;22.59;49.32;101039.13;5122530;27;20092;-48
2023/03/29 09:15:43;;;;;;;272.50;202.48;;;;;;;23.38;46.46;101028.34;5120817;27;20043;-47
2023/03/29 09:18:29;;;;;;;265.60;190.45;;;;;;;23.84;45.32;101031.69;5129700;28;20061;-47
2023/03/29 09:21:05;;;;;;;234.30;170.98;;;;;;;24.14;44.28;101030.38;5121256;27;20035;-55
2023/03/29 09:24:01;;;;;;;215.52;163.18;;;;;;;24.30;43.75;101031.47;5146311;27;20353;-49
2023/03/29 09:26:30;;;;;;;173.13;127.63;;;;;;;24.42;42.66;101025.47;5136860;27;20112;-47
2023/03/29 09:29:09;;;;;;;179.27;128.82;;;;;;;24.45;42.24;101029.88;5151361;27;20058;-49
2023/03/29 09:31:40;;;;;;;174.15;125.72;;;;;;;24.47;42.01;101022.94;5151232;27;20031;-48
2023/03/29 09:34:14;;;;;;;174.27;120.80;;;;;;;24.46;41.79;101010.69;5109422;28;20023;-47
2023/03/29 09:36:52;;;;;;;147.48;104.65;;;;;;;24.47;41.73;101008.06;5109737;28;20108;-46
2023/03/29 09:39:21;;;;;;;138.75;99.00;;;;;;;24.55;41.24;101001.19;5110516;28;20028;-46
2023/03/29 09:41:55;;;;;;;161.45;111.07;;;;;;;24.65;41.43;100998.63;5109821;27;20030;-48
2023/03/29 09:44:27;;;;;;;154.90;108.15;;;;;;;24.65;41.37;101015.28;5129550;28;20023;-50
2023/03/29 09:46:58;;;;;;;149.10;104.22;;;;;;;24.74;41.09;101014.50;5130704;27;20031;-54
2023/03/29 09:49:31;;;;;;;140.20;96.85;;;;;;;24.69;41.33;101001.31;5128640;27;20031;-52
2023/03/29 09:52:04;;;;;;;131.52;93.88;;;;;;;24.82;41.03;101004.09;5118007;27;20020;-48
2023/03/29 09:54:32;;;;;;;130.55;88.22;;;;;;;24.78;40.81;101005.81;5114684;27;20039;-48
2023/03/29 09:57:00;;;;;;;116.57;81.07;;;;;;;24.83;40.74;101005.84;5114241;27;20035;-54
2023/03/29 09:59:29;;;;;;;115.70;79.50;;;;;;;24.85;40.73;101004.13;5116314;27;20034;-51
2023/03/29 10:02:07;;;;;;;108.25;76.88;;;;;;;24.73;40.60;100997.03;5123454;27;20072;-49
2023/03/29 10:04:35;;;;;;;99.57;70.60;;;;;;;24.88;40.36;100988.41;5114642;27;20491;-50
2023/03/29 10:07:04;;;;;;;96.60;67.30;;;;;;;24.77;40.48;100984.81;5114382;27;20110;-52
2023/03/29 10:09:33;;;;;;;90.78;64.47;;;;;;;24.77;40.34;100996.16;5117395;27;20130;-55
2023/03/29 10:12:02;;;;;;;90.97;64.88;;;;;;;24.78;40.50;101004.94;5123419;27;20080;-49
2023/03/29 10:14:30;;;;;;;75.30;54.80;;;;;;;24.87;39.86;100997.16;5110524;27;20031;-51
2023/03/29 10:16:59;;;;;;;78.97;52.78;;;;;;;24.88;40.08;100989.31;5122766;27;20051;-53
2023/03/29 10:19:37;;;;;;;89.85;49.78;;;;;;;24.82;39.95;100999.72;5119199;27;20027;-53
2023/03/29 10:22:15;;;;;;;65.95;41.63;;;;;;;24.74;39.82;101011.88;5111888;27;20023;-55
2023/03/29 10:24:50;;;;;;;70.80;44.97;;;;;;;24.75;39.93;101023.25;5107523;28;20028;-48
2023/03/29 10:27:22;;;;;;;65.25;43.83;;;;;;;24.75;40.03;101031.13;5100795;27;20055;-55
2023/03/29 10:29:52;;;;;;;58.05;37.08;;;;;;;24.48;40.16;100985.34;5103272;27;20480;-48
2023/03/29 10:32:26;;;;;;;54.80;37.45;;;;;;;24.75;39.59;101005.75;5101471;28;20072;-48
2023/03/29 10:34:59;;;;;;;52.40;33.47;;;;;;;24.71;40.01;101004.00;5105059;28;20023;-54
2023/03/29 10:37:29;;;;;;;63.40;33.80;;;;;;;24.84;39.77;101004.97;5107805;28;20095;-53
2023/03/29 10:39:56;;;;;;;50.13;33.90;;;;;;;24.69;39.54;100992.56;5108388;27;20041;-53
2023/03/29 10:42:24;;;;;;;47.42;30.35;;;;;;;24.80;39.54;100987.47;5107150;27;20107;-48
2023/03/29 10:45:01;;;;;;;47.58;30.02;;;;;;;24.75;39.66;100981.28;5097549;28;20358;-52
2023/03/29 10:47:33;;;;;;;47.22;29.30;;;;;;;24.60;39.54;100968.84;5106464;28;20023;-48
2023/03/29 10:50:01;;;;;;;46.40;30.65;;;;;;;24.53;39.69;100968.81;5105731;27;20032;-50
2023/03/29 10:52:30;;;;;;;49.78;29.25;;;;;;;24.63;39.61;100982.00;5099754;28;20034;-51
2023/03/29 10:54:58;;;;;;;40.95;25.70;;;;;;;24.66;39.73;100992.53;5107389;28;20480;-55
2023/03/29 10:57:42;;;;;;;53.25;29.50;;;;;;;24.77;39.66;100995.31;5106999;27;20036;-48
2023/03/29 11:00:48;;;;;;;45.30;28.05;;;;;;;24.68;39.66;100996.91;5108494;27;20123;-50
2023/03/29 11:03:33;;;;;;;45.33;27.38;;;;;;;24.70;39.60;100995.22;5093877;27;20039;-48
2023/03/29 11:06:04;;;;;;;;;;;;;;;24.80;39.33;100996.19;5098147;28;20035;-54
2023/03/29 11:08:58;;;;;;;40.22;25.52;;;;;;;24.84;39.26;101010.22;5105561;28;19920;-54
2023/03/29 11:11:57;;;;;;;41.58;25.98;;;;;;;24.79;39.34;100996.19;5098148;27;20028;-48
2023/03/29 11:14:41;;;;;;;39.95;25.42;;;;;;;24.78;39.46;101000.56;5102196;27;20477;-48
2023/03/29 11:19:50;;;;;;;49.20;29.77;;;;;;;24.77;39.14;100995.31;5048265;28;20468;-50
2023/03/29 11:22:45;;;;;;;40.40;24.08;;;;;;;24.76;39.40;100996.16;5035999;28;20021;-53
2023/03/29 11:25:36;;;;;;;44.33;27.00;;;;;;;24.81;39.35;100994.47;5031155;28;20036;-48
2023/03/29 11:28:14;;;;;;;46.92;28.90;;;;;;;24.75;39.45;100995.28;5054137;28;20536;-50
2023/03/29 11:30:51;;;;;;;41.13;26.00;;;;;;;24.57;39.81;100994.19;5035447;28;20029;-55
2023/03/29 11:33:31;;;;;;;41.85;25.92;;;;;;;24.65;39.56;100988.16;5035355;28;20035;-51
2023/03/29 11:36:02;;;;;;;41.97;27.05;;;;;;;24.63;39.55;100985.53;5052822;28;20029;-56
2023/03/29 11:38:37;;;;;;;45.10;28.02;;;;;;;24.69;39.53;100989.94;5053480;28;20032;-50
2023/03/29 11:41:25;;;;;;;41.10;25.15;;;;;;;24.55;39.64;100993.31;5036002;28;20055;-55
2023/03/29 11:44:03;;;;;;;40.60;24.20;;;;;;;24.60;39.72;100980.22;5057700;28;20154;-53
2023/03/29 11:46:38;;;;;;;45.78;26.33;;;;;;;24.55;39.82;100979.28;5056472;28;20100;-52
2023/03/29 11:49:15;;;;;;;47.58;27.48;;;;;;;24.51;40.15;100981.03;5052936;28;20029;-52
2023/03/29 11:51:54;;;;;;;40.65;24.55;;;;;;;24.56;39.90;100973.19;5038787;28;20028;-51
2023/03/29 11:54:28;;;;;;;45.58;26.13;;;;;;;24.66;39.61;100977.66;5049623;28;20021;-53
2023/03/29 11:57:00;;;;;;;39.83;26.08;;;;;;;24.65;39.91;100965.44;5018675;28;20444;-56
2023/03/29 11:59:35;;;;;;;46.95;28.08;;;;;;;24.64;39.54;100968.91;5035975;28;20025;-51
2023/03/29 12:02:22;;;;;;;40.85;26.55;;;;;;;24.61;39.66;100965.38;5053090;28;20111;-53
2023/03/29 12:04:53;;;;;;;49.92;26.70;;;;;;;24.43;39.90;100959.97;5053051;28;20021;-49
2023/03/29 12:07:29;;;;;;;39.92;23.67;;;;;;;24.40;39.95;100965.16;5035084;28;20390;-56
2023/03/29 12:10:19;;;;;;;39.72;23.55;;;;;;;24.41;40.06;100974.78;5051879;28;20124;-49
2023/03/29 12:13:00;;;;;;;43.20;27.83;;;;;;;24.47;39.94;100965.25;5051203;28;20076;-53
2023/03/29 12:15:31;;;;;;;46.58;29.50;;;;;;;24.73;39.25;100966.41;5035132;28;20508;-50
2023/03/29 12:18:07;;;;;;;48.53;31.20;;;;;;;24.79;39.45;100962.09;5053411;28;20452;-53
2023/03/29 12:20:39;;;;;;;39.95;28.50;;;;;;;24.82;39.27;100962.13;5052999;28;20052;-49
2023/03/29 12:23:08;;;;;;;53.28;34.50;;;;;;;24.88;39.41;100956.91;5052658;28;20024;-55
2023/03/29 12:26:12;;;;;;;50.60;33.88;;;;;;;24.98;39.08;100963.13;5052896;28;20087;-50
2023/03/29 12:29:04;;;;;;;57.85;35.97;;;;;;;24.93;39.19;100964.81;5044994;28;20033;-50
2023/03/29 12:31:56;;;;;;;53.80;34.72;;;;;;;24.79;39.61;100959.47;5047127;28;20037;-50
2023/03/29 12:34:43;;;;;;;53.45;34.08;;;;;;;24.77;39.71;100963.81;5042837;28;20124;-53
2023/03/29 12:37:35;;;;;;;48.75;33.33;;;;;;;24.78;39.50;100966.44;5046787;28;20044;-56
2023/03/29 12:40:10;;;;;;;50.15;33.35;;;;;;;24.78;39.70;100960.34;5045255;28;20116;-51
2023/03/29 12:42:45;;;;;;;48.03;31.15;;;;;;;24.64;39.73;100950.56;5052450;28;20060;-52
2023/03/29 12:45:19;;;;;;;41.80;30.02;;;;;;;24.62;39.84;100954.00;5052339;28;20064;-49
2023/03/29 12:47:49;;;;;;;57.55;34.08;;;;;;;24.73;39.94;100953.28;5052816;28;20033;-49
2023/03/29 12:50:42;;;;;;;52.33;32.80;;;;;;;24.69;39.88;100955.84;5035116;28;20029;-49
2023/03/29 12:53:29;;;;;;;51.92;32.80;;;;;;;24.69;40.08;100947.97;5052714;28;20035;-54
2023/03/29 12:56:02;;;;;;;59.97;33.72;;;;;;;24.66;39.80;100945.31;5046368;28;20059;-49
2023/03/29 12:58:50;;;;;;;52.30;33.08;;;;;;;24.63;39.87;100940.03;5052624;28;20033;-49
2023/03/29 13:01:32;;;;;;;62.15;34.95;;;;;;;24.69;39.91;100935.72;5047238;28;20040;-52
2023/03/29 13:04:02;;;;;;;64.32;35.42;;;;;;;24.66;39.62;100925.19;5052791;28;20170;-49
2023/03/29 13:06:34;;;;;;;53.83;33.72;;;;;;;24.63;40.04;100932.16;5052615;28;20072;-50
2023/03/29 13:09:20;;;;;;;55.10;33.35;;;;;;;24.69;39.75;100940.97;5052462;28;20067;-49
2023/03/29 13:12:07;;;;;;;58.20;34.47;;;;;;;24.69;39.97;100914.75;5052795;28;20036;-53
2023/03/29 13:14:37;;;;;;;58.97;34.47;;;;;;;24.70;39.68;100916.53;5034596;28;20033;-49
2023/03/29 13:17:08;;;;;;;62.55;36.90;;;;;;;24.71;39.67;100918.28;5034780;28;20371;-48
2023/03/29 13:20:14;;;;;;;67.60;40.97;;;;;;;24.73;39.72;100915.69;5034808;28;20045;-48
2023/03/29 13:23:06;;;;;;;74.45;43.97;;;;;;;24.78;39.41;100913.09;5042006;28;20071;-54
2023/03/29 13:25:57;;;;;;;81.47;45.50;;;;;;;24.65;39.82;100912.97;5052694;28;20031;-48
2023/03/29 13:28:50;;;;;;;77.18;43.20;;;;;;;24.54;40.09;100891.88;5047901;28;20128;-48
2023/03/29 13:31:39;;;;;;;78.80;42.50;;;;;;;24.53;40.06;100884.00;5042005;28;20465;-48
2023/03/29 13:34:30;;;;;;;61.17;34.95;;;;;;;24.47;40.12;100892.69;5047113;28;20045;-50
2023/03/29 13:37:23;;;;;;;59.65;30.58;;;;;;;24.47;39.96;100882.19;5052569;28;20040;-52
2023/03/29 13:39:54;;;;;;;56.33;30.35;;;;;;;24.37;40.18;100878.59;5031362;28;20102;-49
2023/03/29 13:42:25;;;;;;;58.55;27.00;;;;;;;24.33;40.17;100879.41;5052417;28;20032;-51
2023/03/29 13:44:54;;;;;;;50.03;26.33;;;;;;;24.27;40.16;100871.50;5052346;28;20433;-51
2023/03/29 13:47:42;;;;;;;44.85;24.70;;;;;;;24.40;39.79;100864.66;5034929;28;20036;-49
2023/03/29 13:50:17;;;;;;;50.83;26.90;;;;;;;24.36;39.89;100861.09;5051978;28;20115;-49
2023/03/29 13:53:15;;;;;;;45.95;26.65;;;;;;;24.52;39.68;100866.50;5053003;28;20057;-49
2023/03/29 13:55:49;;;;;;;46.42;28.48;;;;;;;24.52;39.91;100858.63;5033462;28;20033;-49
2023/03/29 13:58:37;;;;;;;41.80;26.45;;;;;;;24.51;39.73;100849.91;5038696;28;20033;-50
2023/03/29 14:01:44;;;;;;;60.90;33.22;;;;;;;24.52;39.86;100854.28;5048786;28;20035;-51
2023/03/29 14:04:17;;;;;;;58.70;36.67;;;;;;;24.52;39.97;100845.50;5047371;28;20041;-50
2023/03/29 14:06:51;;;;;;;74.05;45.17;;;;;;;24.39;40.04;100848.03;5038320;28;20021;-51
2023/03/29 14:09:29;;;;;;;93.67;53.30;;;;;;;24.53;40.07;100847.28;5038558;28;20029;-49
2023/03/29 14:11:59;;;;;;;98.90;65.25;;;;;;;24.41;40.29;100837.53;5038152;28;20028;-49
2023/03/29 14:14:30;;;;;;;95.10;59.95;;;;;;;24.38;40.25;100832.31;5055779;28;20064;-49
2023/03/29 14:17:00;;;;;;;92.60;60.92;;;;;;;24.63;39.64;100843.00;5022186;28;20033;-52
2023/03/29 14:19:38;;;;;;;118.88;78.60;;;;;;;24.69;40.24;100840.44;5034285;28;20053;-50
2023/03/29 14:22:15;;;;;;;131.80;83.70;;;;;;;24.63;39.94;100845.59;5034292;28;20227;-52
2023/03/29 14:24:48;;;;;;;138.82;90.43;;;;;;;24.60;40.14;100842.97;5035637;28;20540;-48
2023/03/29 14:27:17;;;;;;;140.93;93.82;;;;;;;24.62;40.20;100828.13;5035588;28;20043;-55
2023/03/29 14:29:48;;;;;;;153.07;98.70;;;;;;;24.57;40.39;100839.44;5034459;28;20113;-48
2023/03/29 14:32:19;;;;;;;158.68;103.03;;;;;;;24.63;40.27;100840.38;5035679;28;20121;-54
2023/03/29 14:34:49;;;;;;;164.07;111.30;;;;;;;24.60;40.55;100848.19;5035407;28;20397;-48
2023/03/29 14:37:29;;;;;;;161.60;109.65;;;;;;;24.59;40.58;100842.09;5034253;28;20486;-53
2023/03/29 14:39:59;;;;;;;165.40;116.20;;;;;;;24.68;40.13;100839.53;5034563;28;20041;-50
2023/03/29 14:42:31;;;;;;;172.85;117.50;;;;;;;24.66;40.35;100843.88;5035726;28;20034;-52
2023/03/29 14:45:03;;;;;;;173.07;116.20;;;;;;;24.66;40.61;100841.25;5035146;28;20033;-48
2023/03/29 14:47:33;;;;;;;171.77;116.80;;;;;;;24.65;40.56;100836.91;5034944;28;20026;-52
2023/03/29 14:50:02;;;;;;;167.00;118.95;;;;;;;24.55;40.55;100827.19;5035352;28;20040;-49
2023/03/29 14:52:32;;;;;;;167.30;117.80;;;;;;;24.62;40.46;100829.00;5035151;28;20386;-50
2023/03/29 14:55:01;;;;;;;165.05;117.60;;;;;;;24.64;40.60;100829.91;5034851;28;20363;-52
2023/03/29 14:57:34;;;;;;;176.85;122.88;;;;;;;24.64;40.52;100840.41;5035237;28;20104;-49
2023/03/29 15:00:15;;;;;;;181.10;124.28;;;;;;;24.62;40.79;100841.22;5035070;28;20034;-53
2023/03/29 15:03:00;;;;;;;215.15;144.93;;;;;;;24.64;40.52;100836.88;5033690;28;20108;-48
2023/03/29 15:05:50;;;;;;;203.35;140.43;;;;;;;24.75;40.43;100824.75;5034819;28;20490;-52
2023/03/29 15:08:29;;;;;;;205.05;140.50;;;;;;;24.68;40.70;100810.69;5034849;28;20022;-50
2023/03/29 15:10:58;;;;;;;196.68;135.23;;;;;;;24.70;40.49;100803.72;5034122;28;20482;-50
2023/03/29 15:13:27;;;;;;;178.07;132.48;;;;;;;24.75;40.33;100784.53;5033620;28;20022;-52
2023/03/29 15:15:59;;;;;;;191.88;132.13;;;;;;;24.83;40.33;100780.19;5034553;28;20471;-49
2023/03/29 15:18:33;;;;;;;184.48;127.05;;;;;;;24.79;40.47;100784.56;5043639;28;20067;-49
2023/03/29 15:21:02;;;;;;;192.30;133.73;;;;;;;24.81;40.75;100776.72;5054329;28;20029;-48
2023/03/29 15:23:46;;;;;;;186.40;132.43;;;;;;;24.86;40.18;100768.00;5054132;28;20151;-48
2023/03/29 15:26:20;;;;;;;190.23;132.50;;;;;;;24.81;40.65;100767.09;5036103;28;20036;-48
2023/03/29 15:28:56;;;;;;;184.23;133.27;;;;;;;24.79;40.76;100760.94;5054173;28;20466;-54
2023/03/29 15:31:32;;;;;;;195.07;137.25;;;;;;;24.80;40.79;100759.22;5054536;28;20033;-50
2023/03/29 15:34:07;;;;;;;189.57;133.80;;;;;;;24.81;40.62;100764.47;5037764;28;20374;-50
2023/03/29 15:36:39;;;;;;;188.57;133.57;;;;;;;24.83;40.64;100757.47;5054130;28;20501;-49
2023/03/29 15:39:10;;;;;;;181.52;126.40;;;;;;;24.83;40.72;100748.72;5054690;28;20047;-49
2023/03/29 15:41:39;;;;;;;182.07;130.15;;;;;;;24.84;40.44;100737.34;5054012;28;20033;-55
2023/03/29 15:44:08;;;;;;;190.07;137.45;;;;;;;24.90;40.64;100741.78;5053917;28;20091;-51
2023/03/29 15:46:36;;;;;;;196.00;135.07;;;;;;;24.86;40.94;100739.13;5053706;28;20029;-48
2023/03/29 15:49:05;;;;;;;194.48;141.30;;;;;;;24.92;40.41;100746.16;5054090;28;20025;-50
2023/03/29 15:51:34;;;;;;;192.23;136.70;;;;;;;24.94;40.65;100749.69;5054171;28;20108;-50
2023/03/29 15:54:02;;;;;;;200.32;138.68;;;;;;;24.92;40.60;100754.03;5053564;28;20052;-53
2023/03/29 15:56:36;;;;;;;209.63;146.63;;;;;;;24.93;41.03;100749.66;5053829;28;20056;-48
2023/03/29 15:59:05;;;;;;;202.40;144.23;;;;;;;24.87;40.93;100746.16;5035903;28;20032;-51
2023/03/29 16:01:36;;;;;;;201.32;143.35;;;;;;;24.87;41.42;100747.88;5053674;28;20035;-50
2023/03/29 16:04:06;;;;;;;200.60;141.75;;;;;;;24.89;41.40;100740.91;5053374;28;20026;-49
2023/03/29 16:06:35;;;;;;;203.63;144.55;;;;;;;24.94;41.20;100741.81;5036145;28;20112;-50
2023/03/29 16:09:05;;;;;;;201.43;141.60;;;;;;;24.96;41.28;100750.56;5053760;28;20474;-52
2023/03/29 16:11:34;;;;;;;201.68;143.63;;;;;;;24.94;41.17;100747.06;5053386;28;20098;-53
2023/03/29 16:14:06;;;;;;;213.75;149.23;;;;;;;24.98;41.29;100748.84;5053779;28;20053;-51
2023/03/29 16:16:34;;;;;;;205.20;144.07;;;;;;;25.02;41.03;100745.34;5020181;28;20525;-50
2023/03/29 16:19:03;;;;;;;207.38;148.00;;;;;;;25.02;40.83;100750.59;5053133;28;20069;-50
2023/03/29 16:21:31;;;;;;;204.70;140.77;;;;;;;24.98;41.24;100751.47;5053536;28;20021;-49
2023/03/29 16:24:00;;;;;;;202.57;145.27;;;;;;;25.05;41.04;100755.00;5053329;28;20025;-50
2023/03/29 16:26:29;;;;;;;198.93;143.98;;;;;;;25.03;41.13;100752.34;5053314;28;20029;-48
2023/03/29 16:28:57;;;;;;;200.50;145.45;;;;;;;25.06;41.10;100748.88;5052994;28;20037;-52
2023/03/29 16:31:26;;;;;;;207.60;142.70;;;;;;;25.11;40.97;100749.75;5053248;28;20017;-50
2023/03/29 16:33:54;;;;;;;196.75;141.50;;;;;;;25.02;41.15;100731.34;5053137;28;20485;-48
2023/03/29 16:36:23;;;;;;;197.52;142.02;;;;;;;25.11;40.81;100746.25;5053209;28;20060;-52
2023/03/29 16:38:52;;;;;;;199.73;143.35;;;;;;;25.07;41.04;100757.59;5035366;28;20409;-48
2023/03/29 16:41:21;;;;;;;184.15;135.98;;;;;;;25.11;40.76;100759.38;5052713;28;20033;-52
2023/03/29 16:43:49;;;;;;;201.05;142.23;;;;;;;25.16;40.70;100757.63;5053001;28;20095;-53
2023/03/29 16:46:18;;;;;;;191.40;138.45;;;;;;;25.17;40.56;100752.41;5053413;28;20209;-49
2023/03/29 16:48:47;;;;;;;196.20;141.00;;;;;;;25.16;41.03;100755.00;5052753;28;20060;-49
2023/03/29 16:51:15;;;;;;;203.30;142.38;;;;;;;25.12;41.01;100751.50;5052852;28;20029;-55
2023/03/29 16:53:46;;;;;;;200.65;142.38;;;;;;;25.18;40.79;100745.41;5052943;28;20021;-53
2023/03/29 16:56:15;;;;;;;193.57;142.00;;;;;;;24.95;40.80;100708.56;5052847;28;20025;-49
2023/03/29 16:58:44;;;;;;;194.15;140.80;;;;;;;25.15;40.67;100714.78;5053239;28;20040;-49
2023/03/29 17:01:14;;;;;;;187.57;134.40;;;;;;;25.16;40.87;100705.13;5035567;28;20060;-50
2023/03/29 17:03:44;;;;;;;184.30;134.63;;;;;;;25.15;40.67;100672.78;5053007;28;20128;-49
2023/03/29 17:06:12;;;;;;;182.20;135.07;;;;;;;25.03;40.83;100702.47;5052761;28;20120;-52
2023/03/29 17:08:41;;;;;;;192.10;135.18;;;;;;;25.04;40.88;100700.75;5052476;28;20114;-50
2023/03/29 17:11:10;;;;;;;189.73;137.20;;;;;;;25.06;40.92;100704.25;5052640;28;20485;-49
2023/03/29 17:13:39;;;;;;;191.35;137.27;;;;;;;25.02;41.15;100679.72;5052975;28;20024;-49
2023/03/29 17:16:07;;;;;;;251.70;192.15;;;;;;;25.09;40.93;100678.00;5052606;28;20038;-48
2023/03/29 17:18:36;;;;;;;241.30;181.77;;;;;;;25.13;40.65;100687.66;5052620;28;20132;-49
2023/03/29 17:21:05;;;;;;;236.50;179.88;;;;;;;25.13;40.71;100669.28;5052607;28;20033;-55
2023/03/29 17:23:34;;;;;;;233.45;176.02;;;;;;;25.18;40.73;100685.91;5018701;28;20382;-54
2023/03/29 17:26:02;;;;;;;233.30;172.35;;;;;;;25.20;40.77;100690.31;5052181;28;20032;-49
2023/03/29 17:28:31;;;;;;;228.30;169.18;;;;;;;25.21;40.47;100676.31;5052339;28;20470;-50
2023/03/29 17:31:02;;;;;;;220.98;167.60;;;;;;;25.16;40.52;100692.03;5054882;28;20417;-50
2023/03/29 17:33:31;;;;;;;234.70;168.40;;;;;;;25.12;40.80;100724.41;5056333;28;20025;-48
2023/03/29 17:35:59;;;;;;;220.38;161.90;;;;;;;25.12;40.80;100732.28;5055785;28;20032;-48
2023/03/29 17:38:29;;;;;;;208.23;152.70;;;;;;;25.15;40.75;100758.53;5056665;28;20028;-49
2023/03/29 17:40:57;;;;;;;212.82;142.77;;;;;;;25.15;40.79;100779.53;5056221;28;20478;-49
2023/03/29 17:43:26;;;;;;;202.23;147.85;;;;;;;25.15;40.51;100775.16;5056614;28;20033;-49
2023/03/29 17:45:54;;;;;;;282.65;215.40;;;;;;;25.11;40.93;100775.13;5040205;28;20032;-53
2023/03/29 17:48:24;;;;;;;366.85;288.33;;;;;;;25.13;40.62;100770.78;5055652;28;20542;-52
2023/03/29 17:50:51;;;;;;;344.88;270.17;;;;;;;25.17;40.50;100770.78;5059724;28;20033;-52
2023/03/29 17:53:18;;;;;;;306.40;238.02;;;;;;;25.14;40.64;100760.28;5055825;28;20096;-49
2023/03/29 17:55:45;;;;;;;288.33;221.80;;;;;;;25.16;40.58;100742.78;5055270;28;20029;-52
2023/03/29 17:58:13;;;;;;;276.73;207.88;;;;;;;25.18;40.69;100746.28;5037832;28;20517;-53
2023/03/29 18:00:41;;;;;;;265.02;198.18;;;;;;;25.29;40.51;100730.59;5055368;28;20110;-52
2023/03/29 18:03:09;;;;;;;268.20;197.13;;;;;;;25.26;40.83;100727.94;5054945;28;20538;-50
2023/03/29 18:05:36;;;;;;;267.20;195.65;;;;;;;25.28;40.88;100715.72;5055368;28;20029;-51
2023/03/29 18:08:04;;;;;;;253.73;190.10;;;;;;;25.28;40.62;100728.84;5055258;28;20035;-53
2023/03/29 18:10:31;;;;;;;243.07;183.32;;;;;;;25.33;40.84;100716.59;5054974;28;20025;-51
2023/03/29 18:12:59;;;;;;;255.45;185.88;;;;;;;25.43;40.48;100719.28;5053577;28;20032;-54
2023/03/29 18:15:26;;;;;;;235.23;175.35;;;;;;;25.38;40.92;100723.59;5055107;28;20055;-55
2023/03/29 18:17:53;;;;;;;226.40;170.43;;;;;;;25.42;40.63;100726.28;5054412;28;20384;-50
2023/03/29 18:20:20;;;;;;;227.10;167.43;;;;;;;25.51;40.75;100714.91;5054016;28;20078;-51
2023/03/29 18:22:48;;;;;;;228.20;169.20;;;;;;;25.47;40.39;100693.03;5036518;28;20029;-51
2023/03/29 18:25:17;;;;;;;221.60;164.30;;;;;;;25.52;40.43;100693.03;5019363;28;20074;-51
2023/03/29 18:27:44;;;;;;;216.82;159.80;;;;;;;25.51;40.38;100698.28;5054370;28;20102;-51
2023/03/29 18:30:12;;;;;;;213.52;155.57;;;;;;;25.54;40.42;100688.66;5055750;28;20032;-50
2023/03/29 18:32:39;;;;;;;222.98;162.52;;;;;;;25.55;40.63;100694.81;5051452;28;20033;-51
2023/03/29 18:35:07;;;;;;;219.48;157.23;;;;;;;25.55;40.49;100707.94;5037274;28;20043;-50
2023/03/29 18:37:35;;;;;;;203.55;145.93;;;;;;;25.63;40.17;100706.19;5055547;28;20054;-51
2023/03/29 18:40:06;;;;;;;202.48;143.48;;;;;;;25.59;40.10;100717.56;5055385;28;20102;-50
2023/03/29 18:42:34;;;;;;;195.60;140.02;;;;;;;25.62;40.13;100718.47;5055120;28;20025;-50
2023/03/29 18:45:02;;;;;;;196.68;135.93;;;;;;;25.64;39.91;100728.97;5054344;28;20040;-53
2023/03/29 18:47:31;;;;;;;178.50;128.27;;;;;;;25.66;39.93;100731.59;5055122;28;20025;-50
2023/03/29 18:49:58;;;;;;;185.10;125.07;;;;;;;25.75;39.78;100727.22;5055262;28;20035;-51
2023/03/29 18:52:26;;;;;;;181.20;126.88;;;;;;;25.72;39.56;100714.09;5055200;28;20052;-50
2023/03/29 18:54:54;;;;;;;181.85;130.10;;;;;;;25.68;39.63;100727.22;5054585;28;20032;-51
2023/03/29 18:57:21;;;;;;;182.82;129.75;;;;;;;25.66;39.91;100742.09;5054900;28;20036;-56
2023/03/29 18:59:48;;;;;;;180.52;128.23;;;;;;;25.65;39.83;100771.88;5055146;28;20056;-49
2023/03/29 19:02:16;;;;;;;168.65;119.97;;;;;;;25.63;40.02;100782.38;5054810;28;20025;-50
2023/03/29 19:04:44;;;;;;;171.65;120.38;;;;;;;25.69;39.53;100794.66;5054673;28;20036;-54
2023/03/29 19:07:12;;;;;;;161.45;117.40;;;;;;;25.66;39.91;100777.13;5054452;28;20036;-51
2023/03/29 19:09:41;;;;;;;241.30;174.98;;;;;;;25.65;39.81;100772.75;5036444;28;20036;-51
2023/03/29 19:12:08;;;;;;;259.98;186.10;;;;;;;25.62;39.73;100759.59;5054663;28;20029;-51
2023/03/29 19:14:35;;;;;;;241.32;173.63;;;;;;;25.58;39.93;100752.56;5054846;28;20025;-50
2023/03/29 19:17:02;;;;;;;233.32;166.90;;;;;;;25.60;39.99;100728.09;5052068;28;20024;-55
2023/03/29 19:19:31;;;;;;;209.32;150.48;;;;;;;25.67;39.85;100725.47;5074070;28;20079;-49
2023/03/29 19:21:58;;;;;;;200.05;140.73;;;;;;;25.75;39.78;100736.88;5074624;28;20359;-56
2023/03/29 19:24:26;;;;;;;190.25;137.38;;;;;;;25.77;39.40;100749.13;5074429;28;20025;-49
2023/03/29 19:26:55;;;;;;;182.02;130.90;;;;;;;25.77;39.59;100740.38;5062406;28;20135;-50
2023/03/29 19:29:23;;;;;;;186.32;131.10;;;;;;;25.78;39.24;100750.03;5053273;28;20063;-51
2023/03/29 19:31:50;;;;;;;179.43;126.53;;;;;;;25.80;39.28;100748.28;5053427;28;20060;-51
2023/03/29 19:34:21;;;;;;;183.27;126.55;;;;;;;25.83;39.41;100745.63;5035527;28;20434;-50
2023/03/29 19:36:49;;;;;;;175.95;125.18;;;;;;;25.86;39.20;100740.38;5054490;28;20048;-55
2023/03/29 19:39:17;;;;;;;178.20;127.18;;;;;;;25.84;39.34;100736.00;5053572;28;20119;-52
2023/03/29 19:41:45;;;;;;;173.95;126.10;;;;;;;25.77;39.54;100735.13;5052902;28;20025;-50
2023/03/29 19:44:12;;;;;;;181.80;124.90;;;;;;;25.77;39.60;100767.53;5053415;28;20112;-53
2023/03/29 19:46:41;;;;;;;179.55;124.10;;;;;;;25.80;39.50;100782.44;5054591;28;20049;-52
2023/03/29 19:49:12;;;;;;;164.43;116.32;;;;;;;25.81;39.50;100785.94;5053220;28;20033;-50
2023/03/29 19:51:41;;;;;;;162.85;115.53;;;;;;;25.78;39.59;100779.78;5057738;28;20025;-56
2023/03/29 19:54:12;;;;;;;167.38;119.13;;;;;;;25.83;39.27;100765.78;5052378;28;20078;-50
2023/03/29 19:56:41;;;;;;;173.70;120.82;;;;;;;25.85;39.21;100687.84;5058653;28;20501;-54
2023/03/29 19:59:09;;;;;;;160.50;114.20;;;;;;;25.86;39.41;100642.28;5049042;28;20035;-50
2023/03/29 20:01:41;;;;;;;178.90;124.07;;;;;;;25.74;39.79;100645.78;5053084;28;20055;-50
2023/03/29 20:04:09;;;;;;;174.88;121.63;;;;;;;25.69;39.83;100665.91;5053178;28;20025;-51
2023/03/29 20:06:36;;;;;;;189.65;129.45;;;;;;;25.67;39.98;100673.81;5052680;28;20025;-51
2023/03/29 20:09:04;;;;;;;181.93;128.40;;;;;;;25.74;39.79;100693.09;5039401;28;20040;-54
2023/03/29 20:11:32;;;;;;;194.02;132.30;;;;;;;25.81;39.65;100693.97;5052824;28;20091;-54
2023/03/29 20:14:00;;;;;;;195.13;134.38;;;;;;;25.79;40.03;100688.72;5053082;28;20086;-52
2023/03/29 20:16:31;;;;;;;198.40;139.00;;;;;;;25.87;39.67;100692.22;5054816;28;20436;-49
2023/03/29 20:19:00;;;;;;;200.15;139.18;;;;;;;25.83;39.92;100694.84;5052594;28;20049;-52
2023/03/29 20:21:30;;;;;;;196.07;138.57;;;;;;;25.79;40.11;100717.63;5056660;28;20025;-52
2023/03/29 20:23:58;;;;;;;199.63;139.55;;;;;;;25.75;40.00;100735.09;5052592;28;20120;-51
2023/03/29 20:26:26;;;;;;;198.60;138.45;;;;;;;25.77;40.02;100751.75;5052460;28;20079;-49
2023/03/29 20:28:54;;;;;;;199.43;136.48;;;;;;;25.84;39.80;100763.16;5052586;28;20111;-49
2023/03/29 20:31:21;;;;;;;190.55;133.05;;;;;;;25.84;40.00;100760.53;5052257;28;20029;-54
2023/03/29 20:33:49;;;;;;;196.60;137.88;;;;;;;25.90;39.75;100771.06;5052177;28;20429;-53
2023/03/29 20:36:17;;;;;;;190.77;137.82;;;;;;;25.97;39.90;100761.44;5052716;28;20533;-54
2023/03/29 20:38:46;;;;;;;189.45;134.20;;;;;;;25.87;39.74;100762.31;5052439;28;20106;-54